sensor_id;sensor_type;location;lat;lon;timestamp;temperature;humidity
3051;DHT22;1535;51.098;6.414;2023-02-22T00:02:22;7.80;99.90
3051;DHT22;1535;51.098;6.414;2023-02-22T00:04:53;7.80;99.90
3051;DHT22;1535;51.098;6.414;2023-02-22T00:07:20;7.80;99.90
3051;DHT22;1535;51.098;6.414;2023-02-22T00:09:49;7.80;99.90
3051;DHT22;1535;51.098;6.414;2023-02-22T00:12:16;7.80;99.90
3051;DHT22;1535;51.098;6.414;2023-02-22T00:14:44;7.80;99.90
3051;DHT22;1535;51.098;6.414;2023-02-22T00:17:11;7.80;99.90
3051;DHT22;1535;51.098;6.414;2023-02-22T00:19:40;7.80;99.90
3051;DHT22;1535;51.098;6.414;2023-02-22T00:22:07;7.80;99.90
3051;DHT22;1535;51.098;6.414;2023-02-22T00:24:34;7.90;99.90
3051;DHT22;1535;51.098;6.414;2023-02-22T00:27:02;7.80;99.90
3051;DHT22;1535;51.098;6.414;2023-02-22T00:29:30;7.80;99.90
3051;DHT22;1535;51.098;6.414;2023-02-22T00:31:58;7.80;99.90
3051;DHT22;1535;51.098;6.414;2023-02-22T00:34:25;7.80;99.90
3051;DHT22;1535;51.098;6.414;2023-02-22T00:36:52;7.90;99.90
3051;DHT22;1535;51.098;6.414;2023-02-22T00:39:20;7.80;99.90
3051;DHT22;1535;51.098;6.414;2023-02-22T00:41:47;7.80;99.90
3051;DHT22;1535;51.098;6.414;2023-02-22T00:44:15;7.80;99.90
3051;DHT22;1535;51.098;6.414;2023-02-22T00:46:42;7.80;99.90
3051;DHT22;1535;51.098;6.414;2023-02-22T00:49:09;7.80;99.90
3051;DHT22;1535;51.098;6.414;2023-02-22T00:51:37;7.80;99.90
3051;DHT22;1535;51.098;6.414;2023-02-22T00:54:03;7.80;99.90
3051;DHT22;1535;51.098;6.414;2023-02-22T00:56:32;7.80;99.90
3051;DHT22;1535;51.098;6.414;2023-02-22T00:59:00;7.80;99.90
3051;DHT22;1535;51.098;6.414;2023-02-22T01:01:30;7.80;99.90
3051;DHT22;1535;51.098;6.414;2023-02-22T01:03:57;7.80;99.90
3051;DHT22;1535;51.098;6.414;2023-02-22T01:06:24;7.90;99.90
3051;DHT22;1535;51.098;6.414;2023-02-22T01:08:52;7.90;99.90
3051;DHT22;1535;51.098;6.414;2023-02-22T01:11:19;8.00;99.90
3051;DHT22;1535;51.098;6.414;2023-02-22T01:13:46;7.90;99.90
3051;DHT22;1535;51.098;6.414;2023-02-22T01:16:14;8.00;99.90
3051;DHT22;1535;51.098;6.414;2023-02-22T01:18:42;8.00;99.90
3051;DHT22;1535;51.098;6.414;2023-02-22T01:21:10;7.90;99.90
3051;DHT22;1535;51.098;6.414;2023-02-22T01:23:36;7.80;99.90
3051;DHT22;1535;51.098;6.414;2023-02-22T01:26:04;7.80;99.90
3051;DHT22;1535;51.098;6.414;2023-02-22T01:28:32;7.90;99.90
3051;DHT22;1535;51.098;6.414;2023-02-22T01:30:59;7.90;99.90
3051;DHT22;1535;51.098;6.414;2023-02-22T01:33:27;7.90;99.90
3051;DHT22;1535;51.098;6.414;2023-02-22T01:35:55;7.90;99.90
3051;DHT22;1535;51.098;6.414;2023-02-22T01:38:22;7.90;99.90
3051;DHT22;1535;51.098;6.414;2023-02-22T01:40:50;7.90;99.90
3051;DHT22;1535;51.098;6.414;2023-02-22T01:43:23;7.90;99.90
3051;DHT22;1535;51.098;6.414;2023-02-22T01:45:58;7.90;99.90
3051;DHT22;1535;51.098;6.414;2023-02-22T01:48:33;7.90;99.90
3051;DHT22;1535;51.098;6.414;2023-02-22T01:51:07;8.00;99.90
3051;DHT22;1535;51.098;6.414;2023-02-22T01:53:39;8.00;99.90
3051;DHT22;1535;51.098;6.414;2023-02-22T01:56:07;7.90;99.90
3051;DHT22;1535;51.098;6.414;2023-02-22T01:58:36;7.90;99.90
3051;DHT22;1535;51.098;6.414;2023-02-22T02:01:04;7.80;99.90
3051;DHT22;1535;51.098;6.414;2023-02-22T02:03:35;7.70;99.90
3051;DHT22;1535;51.098;6.414;2023-02-22T02:06:07;7.70;99.90
3051;DHT22;1535;51.098;6.414;2023-02-22T02:08:44;7.70;99.90
3051;DHT22;1535;51.098;6.414;2023-02-22T02:11:15;7.60;99.90
3051;DHT22;1535;51.098;6.414;2023-02-22T02:13:43;7.60;99.90
3051;DHT22;1535;51.098;6.414;2023-02-22T02:16:10;7.70;99.90
3051;DHT22;1535;51.098;6.414;2023-02-22T02:18:38;7.60;99.90
3051;DHT22;1535;51.098;6.414;2023-02-22T02:21:37;7.50;99.90
3051;DHT22;1535;51.098;6.414;2023-02-22T02:24:36;7.50;99.90
3051;DHT22;1535;51.098;6.414;2023-02-22T02:27:11;7.60;99.90
3051;DHT22;1535;51.098;6.414;2023-02-22T02:30:03;7.60;99.90
3051;DHT22;1535;51.098;6.414;2023-02-22T02:32:46;7.70;99.90
3051;DHT22;1535;51.098;6.414;2023-02-22T02:35:20;7.70;99.90
3051;DHT22;1535;51.098;6.414;2023-02-22T02:37:55;7.80;99.90
3051;DHT22;1535;51.098;6.414;2023-02-22T02:40:28;7.80;99.90
3051;DHT22;1535;51.098;6.414;2023-02-22T02:43:02;7.80;99.90
3051;DHT22;1535;51.098;6.414;2023-02-22T02:45:34;7.60;99.90
3051;DHT22;1535;51.098;6.414;2023-02-22T02:48:05;7.70;99.90
3051;DHT22;1535;51.098;6.414;2023-02-22T02:50:39;7.70;99.90
3051;DHT22;1535;51.098;6.414;2023-02-22T02:53:08;7.70;99.90
3051;DHT22;1535;51.098;6.414;2023-02-22T02:55:36;7.70;99.90
3051;DHT22;1535;51.098;6.414;2023-02-22T02:58:06;7.70;99.90
3051;DHT22;1535;51.098;6.414;2023-02-22T03:00:36;7.70;99.90
3051;DHT22;1535;51.098;6.414;2023-02-22T03:03:19;7.60;99.90
3051;DHT22;1535;51.098;6.414;2023-02-22T03:06:00;7.60;99.90
3051;DHT22;1535;51.098;6.414;2023-02-22T03:08:36;7.60;99.90
3051;DHT22;1535;51.098;6.414;2023-02-22T03:11:09;7.50;99.90
3051;DHT22;1535;51.098;6.414;2023-02-22T03:13:49;7.40;99.90
3051;DHT22;1535;51.098;6.414;2023-02-22T03:16:26;7.40;99.90
3051;DHT22;1535;51.098;6.414;2023-02-22T03:18:59;7.30;99.90
3051;DHT22;1535;51.098;6.414;2023-02-22T03:21:33;7.30;99.90
3051;DHT22;1535;51.098;6.414;2023-02-22T03:24:08;7.20;99.90
3051;DHT22;1535;51.098;6.414;2023-02-22T03:26:41;7.20;99.90
3051;DHT22;1535;51.098;6.414;2023-02-22T03:29:11;7.30;99.90
3051;DHT22;1535;51.098;6.414;2023-02-22T03:31:45;7.10;99.90
3051;DHT22;1535;51.098;6.414;2023-02-22T03:34:18;7.10;99.90
3051;DHT22;1535;51.098;6.414;2023-02-22T03:36:51;7.20;99.90
3051;DHT22;1535;51.098;6.414;2023-02-22T03:39:21;7.00;99.90
3051;DHT22;1535;51.098;6.414;2023-02-22T03:41:57;6.90;99.90
3051;DHT22;1535;51.098;6.414;2023-02-22T03:44:31;6.80;99.90
3051;DHT22;1535;51.098;6.414;2023-02-22T03:47:05;6.70;99.90
3051;DHT22;1535;51.098;6.414;2023-02-22T03:49:37;6.50;99.90
3051;DHT22;1535;51.098;6.414;2023-02-22T03:52:06;6.50;99.90
3051;DHT22;1535;51.098;6.414;2023-02-22T03:54:33;6.40;99.90
3051;DHT22;1535;51.098;6.414;2023-02-22T03:57:04;6.50;99.90
3051;DHT22;1535;51.098;6.414;2023-02-22T03:59:32;6.50;99.90
3051;DHT22;1535;51.098;6.414;2023-02-22T04:01:59;6.60;99.90
3051;DHT22;1535;51.098;6.414;2023-02-22T04:04:26;6.50;99.90
3051;DHT22;1535;51.098;6.414;2023-02-22T04:06:54;6.40;99.90
3051;DHT22;1535;51.098;6.414;2023-02-22T04:09:21;6.30;99.90
3051;DHT22;1535;51.098;6.414;2023-02-22T04:11:49;6.20;99.90
3051;DHT22;1535;51.098;6.414;2023-02-22T04:14:16;6.10;99.90
3051;DHT22;1535;51.098;6.414;2023-02-22T04:16:43;6.20;99.90
3051;DHT22;1535;51.098;6.414;2023-02-22T04:19:10;6.20;99.90
3051;DHT22;1535;51.098;6.414;2023-02-22T04:21:37;6.10;99.90
3051;DHT22;1535;51.098;6.414;2023-02-22T04:24:06;6.00;99.90
3051;DHT22;1535;51.098;6.414;2023-02-22T04:26:32;6.00;99.90
3051;DHT22;1535;51.098;6.414;2023-02-22T04:29:00;5.80;99.90
3051;DHT22;1535;51.098;6.414;2023-02-22T04:31:28;5.90;99.90
3051;DHT22;1535;51.098;6.414;2023-02-22T04:33:55;5.80;99.90
3051;DHT22;1535;51.098;6.414;2023-02-22T04:36:22;5.80;99.90
3051;DHT22;1535;51.098;6.414;2023-02-22T04:38:49;5.70;99.90
3051;DHT22;1535;51.098;6.414;2023-02-22T04:41:18;5.80;99.90
3051;DHT22;1535;51.098;6.414;2023-02-22T04:43:45;5.80;99.90
3051;DHT22;1535;51.098;6.414;2023-02-22T04:46:12;5.80;99.90
3051;DHT22;1535;51.098;6.414;2023-02-22T04:48:39;5.80;99.90
3051;DHT22;1535;51.098;6.414;2023-02-22T04:51:06;5.70;99.90
3051;DHT22;1535;51.098;6.414;2023-02-22T04:53:34;5.70;99.90
3051;DHT22;1535;51.098;6.414;2023-02-22T04:56:01;5.50;99.90
3051;DHT22;1535;51.098;6.414;2023-02-22T04:58:29;5.60;99.90
3051;DHT22;1535;51.098;6.414;2023-02-22T05:00:57;5.60;99.90
3051;DHT22;1535;51.098;6.414;2023-02-22T05:03:23;5.60;99.90
3051;DHT22;1535;51.098;6.414;2023-02-22T05:05:51;5.60;99.90
3051;DHT22;1535;51.098;6.414;2023-02-22T05:08:17;5.70;99.90
3051;DHT22;1535;51.098;6.414;2023-02-22T05:10:44;5.60;99.90
3051;DHT22;1535;51.098;6.414;2023-02-22T05:13:11;5.70;99.90
3051;DHT22;1535;51.098;6.414;2023-02-22T05:15:39;5.70;99.90
3051;DHT22;1535;51.098;6.414;2023-02-22T05:18:06;5.60;99.90
3051;DHT22;1535;51.098;6.414;2023-02-22T05:20:35;5.60;99.90
3051;DHT22;1535;51.098;6.414;2023-02-22T05:23:02;5.50;99.90
3051;DHT22;1535;51.098;6.414;2023-02-22T05:25:30;5.50;99.90
3051;DHT22;1535;51.098;6.414;2023-02-22T05:27:59;5.50;99.90
3051;DHT22;1535;51.098;6.414;2023-02-22T05:30:29;5.60;99.90
3051;DHT22;1535;51.098;6.414;2023-02-22T05:32:58;5.50;99.90
3051;DHT22;1535;51.098;6.414;2023-02-22T05:35:26;5.50;99.90
3051;DHT22;1535;51.098;6.414;2023-02-22T05:37:54;5.50;99.90
3051;DHT22;1535;51.098;6.414;2023-02-22T05:40:23;5.60;99.90
3051;DHT22;1535;51.098;6.414;2023-02-22T05:42:51;5.60;99.90
3051;DHT22;1535;51.098;6.414;2023-02-22T05:45:20;5.60;99.90
3051;DHT22;1535;51.098;6.414;2023-02-22T05:47:48;5.60;99.90
3051;DHT22;1535;51.098;6.414;2023-02-22T05:50:18;5.60;99.90
3051;DHT22;1535;51.098;6.414;2023-02-22T05:52:45;5.60;99.90
3051;DHT22;1535;51.098;6.414;2023-02-22T05:55:14;5.50;99.90
3051;DHT22;1535;51.098;6.414;2023-02-22T05:57:41;5.50;99.90
3051;DHT22;1535;51.098;6.414;2023-02-22T06:00:10;5.50;99.90
3051;DHT22;1535;51.098;6.414;2023-02-22T06:02:37;5.50;99.90
3051;DHT22;1535;51.098;6.414;2023-02-22T06:05:04;5.50;99.90
3051;DHT22;1535;51.098;6.414;2023-02-22T06:07:33;5.50;99.90
3051;DHT22;1535;51.098;6.414;2023-02-22T06:10:00;5.50;99.90
3051;DHT22;1535;51.098;6.414;2023-02-22T06:12:27;5.50;99.90
3051;DHT22;1535;51.098;6.414;2023-02-22T06:14:54;5.50;99.90
3051;DHT22;1535;51.098;6.414;2023-02-22T06:17:21;5.60;99.90
3051;DHT22;1535;51.098;6.414;2023-02-22T06:19:48;5.60;99.90
3051;DHT22;1535;51.098;6.414;2023-02-22T06:22:16;5.70;99.90
3051;DHT22;1535;51.098;6.414;2023-02-22T06:24:44;5.70;99.90
3051;DHT22;1535;51.098;6.414;2023-02-22T06:27:11;5.60;99.90
3051;DHT22;1535;51.098;6.414;2023-02-22T06:29:38;5.70;99.90
3051;DHT22;1535;51.098;6.414;2023-02-22T06:32:10;5.70;99.90
3051;DHT22;1535;51.098;6.414;2023-02-22T06:34:37;5.70;99.90
3051;DHT22;1535;51.098;6.414;2023-02-22T06:37:05;5.80;99.90
3051;DHT22;1535;51.098;6.414;2023-02-22T06:39:32;5.80;99.90
3051;DHT22;1535;51.098;6.414;2023-02-22T06:42:01;5.70;99.90
3051;DHT22;1535;51.098;6.414;2023-02-22T06:44:27;5.70;99.90
3051;DHT22;1535;51.098;6.414;2023-02-22T06:46:54;5.70;99.90
3051;DHT22;1535;51.098;6.414;2023-02-22T06:49:21;5.70;99.90
3051;DHT22;1535;51.098;6.414;2023-02-22T06:51:48;5.70;99.90
3051;DHT22;1535;51.098;6.414;2023-02-22T06:54:15;5.60;99.90
3051;DHT22;1535;51.098;6.414;2023-02-22T06:56:41;5.60;99.90
3051;DHT22;1535;51.098;6.414;2023-02-22T06:59:10;5.50;99.90
3051;DHT22;1535;51.098;6.414;2023-02-22T07:01:40;5.50;99.90
3051;DHT22;1535;51.098;6.414;2023-02-22T07:04:07;5.50;99.90
3051;DHT22;1535;51.098;6.414;2023-02-22T07:06:34;5.50;99.90
3051;DHT22;1535;51.098;6.414;2023-02-22T07:09:02;5.40;99.90
3051;DHT22;1535;51.098;6.414;2023-02-22T07:11:29;5.50;99.90
3051;DHT22;1535;51.098;6.414;2023-02-22T07:13:56;5.40;99.90
3051;DHT22;1535;51.098;6.414;2023-02-22T07:16:24;5.40;99.90
3051;DHT22;1535;51.098;6.414;2023-02-22T07:18:51;5.40;99.90
3051;DHT22;1535;51.098;6.414;2023-02-22T07:21:17;5.50;99.90
3051;DHT22;1535;51.098;6.414;2023-02-22T07:23:50;5.50;99.90
3051;DHT22;1535;51.098;6.414;2023-02-22T07:26:17;5.50;99.90
3051;DHT22;1535;51.098;6.414;2023-02-22T07:28:45;5.50;99.90
3051;DHT22;1535;51.098;6.414;2023-02-22T07:31:11;5.50;99.90
3051;DHT22;1535;51.098;6.414;2023-02-22T07:33:40;5.50;99.90
3051;DHT22;1535;51.098;6.414;2023-02-22T07:36:08;5.60;99.90
3051;DHT22;1535;51.098;6.414;2023-02-22T07:38:35;5.60;99.90
3051;DHT22;1535;51.098;6.414;2023-02-22T07:41:03;5.60;99.90
3051;DHT22;1535;51.098;6.414;2023-02-22T07:43:29;5.70;99.90
3051;DHT22;1535;51.098;6.414;2023-02-22T07:45:59;5.80;99.90
3051;DHT22;1535;51.098;6.414;2023-02-22T07:48:28;5.80;99.90
3051;DHT22;1535;51.098;6.414;2023-02-22T07:50:56;5.80;99.90
3051;DHT22;1535;51.098;6.414;2023-02-22T07:53:24;5.90;99.90
3051;DHT22;1535;51.098;6.414;2023-02-22T07:55:55;6.00;99.90
3051;DHT22;1535;51.098;6.414;2023-02-22T07:58:23;6.10;99.90
3051;DHT22;1535;51.098;6.414;2023-02-22T08:00:51;6.30;99.90
3051;DHT22;1535;51.098;6.414;2023-02-22T08:03:19;6.40;99.90
3051;DHT22;1535;51.098;6.414;2023-02-22T08:05:48;6.60;99.90
3051;DHT22;1535;51.098;6.414;2023-02-22T08:08:16;6.60;99.90
3051;DHT22;1535;51.098;6.414;2023-02-22T08:10:43;6.50;99.90
3051;DHT22;1535;51.098;6.414;2023-02-22T08:13:11;6.60;99.90
3051;DHT22;1535;51.098;6.414;2023-02-22T08:15:39;6.60;99.90
3051;DHT22;1535;51.098;6.414;2023-02-22T08:18:07;6.70;99.90
3051;DHT22;1535;51.098;6.414;2023-02-22T08:20:35;6.80;99.90
3051;DHT22;1535;51.098;6.414;2023-02-22T08:23:02;7.00;99.90
3051;DHT22;1535;51.098;6.414;2023-02-22T08:25:31;7.10;99.90
3051;DHT22;1535;51.098;6.414;2023-02-22T08:28:00;7.00;99.90
3051;DHT22;1535;51.098;6.414;2023-02-22T08:30:29;7.20;99.90
3051;DHT22;1535;51.098;6.414;2023-02-22T08:32:56;7.20;99.90
3051;DHT22;1535;51.098;6.414;2023-02-22T08:35:24;7.30;99.90
3051;DHT22;1535;51.098;6.414;2023-02-22T08:37:53;7.40;99.90
3051;DHT22;1535;51.098;6.414;2023-02-22T08:40:21;7.70;99.90
3051;DHT22;1535;51.098;6.414;2023-02-22T08:42:50;7.80;99.90
3051;DHT22;1535;51.098;6.414;2023-02-22T08:45:17;7.80;99.90
3051;DHT22;1535;51.098;6.414;2023-02-22T08:47:44;7.90;99.90
3051;DHT22;1535;51.098;6.414;2023-02-22T08:50:16;8.00;99.90
3051;DHT22;1535;51.098;6.414;2023-02-22T08:52:44;8.00;99.90
3051;DHT22;1535;51.098;6.414;2023-02-22T08:55:12;8.00;99.90
3051;DHT22;1535;51.098;6.414;2023-02-22T08:57:39;7.90;99.90
3051;DHT22;1535;51.098;6.414;2023-02-22T09:00:09;8.10;99.90
3051;DHT22;1535;51.098;6.414;2023-02-22T09:02:36;8.30;99.90
3051;DHT22;1535;51.098;6.414;2023-02-22T09:05:03;8.40;99.90
3051;DHT22;1535;51.098;6.414;2023-02-22T09:07:31;8.40;99.90
3051;DHT22;1535;51.098;6.414;2023-02-22T09:09:58;8.50;99.90
3051;DHT22;1535;51.098;6.414;2023-02-22T09:12:26;8.50;99.90
3051;DHT22;1535;51.098;6.414;2023-02-22T09:14:54;8.70;99.90
3051;DHT22;1535;51.098;6.414;2023-02-22T09:17:23;8.70;99.90
3051;DHT22;1535;51.098;6.414;2023-02-22T09:19:50;8.70;99.90
3051;DHT22;1535;51.098;6.414;2023-02-22T09:22:16;8.80;99.90
3051;DHT22;1535;51.098;6.414;2023-02-22T09:24:43;8.90;99.90
3051;DHT22;1535;51.098;6.414;2023-02-22T09:27:10;8.80;99.90
3051;DHT22;1535;51.098;6.414;2023-02-22T09:29:37;8.90;99.90
3051;DHT22;1535;51.098;6.414;2023-02-22T09:32:04;9.00;99.90
3051;DHT22;1535;51.098;6.414;2023-02-22T09:34:33;9.20;99.90
3051;DHT22;1535;51.098;6.414;2023-02-22T09:37:00;9.30;99.90
3051;DHT22;1535;51.098;6.414;2023-02-22T09:39:27;9.50;99.90
3051;DHT22;1535;51.098;6.414;2023-02-22T09:42:02;9.60;99.90
3051;DHT22;1535;51.098;6.414;2023-02-22T09:44:36;9.60;99.90
3051;DHT22;1535;51.098;6.414;2023-02-22T09:47:12;9.70;99.90
3051;DHT22;1535;51.098;6.414;2023-02-22T09:49:44;10.00;99.90
3051;DHT22;1535;51.098;6.414;2023-02-22T09:52:17;10.20;99.90
3051;DHT22;1535;51.098;6.414;2023-02-22T09:54:49;10.30;99.90
3051;DHT22;1535;51.098;6.414;2023-02-22T09:57:21;10.50;99.90
3051;DHT22;1535;51.098;6.414;2023-02-22T09:59:56;10.60;99.90
3051;DHT22;1535;51.098;6.414;2023-02-22T10:02:28;10.80;99.90
3051;DHT22;1535;51.098;6.414;2023-02-22T10:05:01;10.90;99.90
3051;DHT22;1535;51.098;6.414;2023-02-22T10:07:33;10.90;99.90
3051;DHT22;1535;51.098;6.414;2023-02-22T10:10:03;11.10;99.90
3051;DHT22;1535;51.098;6.414;2023-02-22T10:12:37;11.20;99.90
3051;DHT22;1535;51.098;6.414;2023-02-22T10:15:25;11.20;99.90
3051;DHT22;1535;51.098;6.414;2023-02-22T10:18:02;11.50;99.90
3051;DHT22;1535;51.098;6.414;2023-02-22T10:20:41;11.60;99.90
3051;DHT22;1535;51.098;6.414;2023-02-22T10:23:17;11.80;99.90
3051;DHT22;1535;51.098;6.414;2023-02-22T10:25:51;12.20;99.90
3051;DHT22;1535;51.098;6.414;2023-02-22T10:28:23;12.20;99.90
3051;DHT22;1535;51.098;6.414;2023-02-22T10:30:56;12.40;99.90
3051;DHT22;1535;51.098;6.414;2023-02-22T10:33:27;12.80;99.90
3051;DHT22;1535;51.098;6.414;2023-02-22T10:35:58;13.40;99.90
3051;DHT22;1535;51.098;6.414;2023-02-22T10:38:27;14.00;99.90
3051;DHT22;1535;51.098;6.414;2023-02-22T10:40:58;14.30;99.90
3051;DHT22;1535;51.098;6.414;2023-02-22T10:43:26;14.20;99.90
3051;DHT22;1535;51.098;6.414;2023-02-22T10:45:55;14.70;99.90
3051;DHT22;1535;51.098;6.414;2023-02-22T10:48:24;15.10;99.90
3051;DHT22;1535;51.098;6.414;2023-02-22T10:50:54;15.10;99.90
3051;DHT22;1535;51.098;6.414;2023-02-22T10:53:25;15.50;99.90
3051;DHT22;1535;51.098;6.414;2023-02-22T10:56:13;15.50;99.90
3051;DHT22;1535;51.098;6.414;2023-02-22T10:58:45;15.50;99.90
3051;DHT22;1535;51.098;6.414;2023-02-22T11:01:21;15.60;99.90
3051;DHT22;1535;51.098;6.414;2023-02-22T11:04:00;15.80;99.90
3051;DHT22;1535;51.098;6.414;2023-02-22T11:06:29;16.00;99.90
3051;DHT22;1535;51.098;6.414;2023-02-22T11:09:05;16.40;99.90
3051;DHT22;1535;51.098;6.414;2023-02-22T11:11:39;16.60;99.90
3051;DHT22;1535;51.098;6.414;2023-02-22T11:14:06;17.00;99.90
3051;DHT22;1535;51.098;6.414;2023-02-22T11:16:37;17.10;99.90
3051;DHT22;1535;51.098;6.414;2023-02-22T11:19:11;16.90;99.90
3051;DHT22;1535;51.098;6.414;2023-02-22T11:21:42;16.90;99.90
3051;DHT22;1535;51.098;6.414;2023-02-22T11:24:13;17.60;99.90
3051;DHT22;1535;51.098;6.414;2023-02-22T11:26:42;18.30;99.90
3051;DHT22;1535;51.098;6.414;2023-02-22T11:29:15;18.70;99.90
3051;DHT22;1535;51.098;6.414;2023-02-22T11:31:45;18.90;99.90
3051;DHT22;1535;51.098;6.414;2023-02-22T11:34:32;19.10;99.90
3051;DHT22;1535;51.098;6.414;2023-02-22T11:37:15;19.30;99.90
3051;DHT22;1535;51.098;6.414;2023-02-22T11:39:45;19.40;99.90
3051;DHT22;1535;51.098;6.414;2023-02-22T11:42:21;19.20;99.90
3051;DHT22;1535;51.098;6.414;2023-02-22T11:45:07;19.00;99.90
3051;DHT22;1535;51.098;6.414;2023-02-22T11:47:34;18.70;99.90
3051;DHT22;1535;51.098;6.414;2023-02-22T11:50:01;18.40;99.90
3051;DHT22;1535;51.098;6.414;2023-02-22T11:52:40;18.90;99.90
3051;DHT22;1535;51.098;6.414;2023-02-22T11:55:17;18.50;99.90
3051;DHT22;1535;51.098;6.414;2023-02-22T11:57:54;18.90;99.90
3051;DHT22;1535;51.098;6.414;2023-02-22T12:00:31;19.50;99.90
3051;DHT22;1535;51.098;6.414;2023-02-22T12:06:13;19.20;99.90
3051;DHT22;1535;51.098;6.414;2023-02-22T12:08:51;19.00;99.90
3051;DHT22;1535;51.098;6.414;2023-02-22T12:11:26;19.00;99.90
3051;DHT22;1535;51.098;6.414;2023-02-22T12:14:04;19.10;99.90
3051;DHT22;1535;51.098;6.414;2023-02-22T12:16:39;19.10;99.90
3051;DHT22;1535;51.098;6.414;2023-02-22T12:19:14;19.10;99.90
3051;DHT22;1535;51.098;6.414;2023-02-22T12:21:47;19.40;99.90
3051;DHT22;1535;51.098;6.414;2023-02-22T12:24:19;19.20;99.90
3051;DHT22;1535;51.098;6.414;2023-02-22T12:26:52;19.60;99.90
3051;DHT22;1535;51.098;6.414;2023-02-22T12:29:25;19.70;99.90
3051;DHT22;1535;51.098;6.414;2023-02-22T12:31:56;20.00;99.90
3051;DHT22;1535;51.098;6.414;2023-02-22T12:34:30;20.00;99.90
3051;DHT22;1535;51.098;6.414;2023-02-22T12:37:04;19.50;99.90
3051;DHT22;1535;51.098;6.414;2023-02-22T12:39:41;20.00;99.90
3051;DHT22;1535;51.098;6.414;2023-02-22T12:42:19;20.30;99.90
3051;DHT22;1535;51.098;6.414;2023-02-22T12:44:52;20.10;99.90
3051;DHT22;1535;51.098;6.414;2023-02-22T12:47:25;20.40;99.90
3051;DHT22;1535;51.098;6.414;2023-02-22T12:49:58;20.60;99.90
3051;DHT22;1535;51.098;6.414;2023-02-22T12:52:37;20.40;99.90
3051;DHT22;1535;51.098;6.414;2023-02-22T12:55:10;20.50;99.90
3051;DHT22;1535;51.098;6.414;2023-02-22T12:57:44;20.30;99.90
3051;DHT22;1535;51.098;6.414;2023-02-22T13:00:17;20.30;99.90
3051;DHT22;1535;51.098;6.414;2023-02-22T13:02:55;20.70;99.90
3051;DHT22;1535;51.098;6.414;2023-02-22T13:05:25;20.50;99.40
3051;DHT22;1535;51.098;6.414;2023-02-22T13:08:02;20.10;99.90
3051;DHT22;1535;51.098;6.414;2023-02-22T13:11:07;20.20;99.90
3051;DHT22;1535;51.098;6.414;2023-02-22T13:13:44;19.50;99.70
3051;DHT22;1535;51.098;6.414;2023-02-22T13:16:24;19.70;99.90
3051;DHT22;1535;51.098;6.414;2023-02-22T13:18:59;19.50;99.90
3051;DHT22;1535;51.098;6.414;2023-02-22T13:21:37;19.10;99.90
3051;DHT22;1535;51.098;6.414;2023-02-22T13:24:13;19.20;99.90
3051;DHT22;1535;51.098;6.414;2023-02-22T13:26:45;19.50;99.90
3051;DHT22;1535;51.098;6.414;2023-02-22T13:29:20;19.20;99.90
3051;DHT22;1535;51.098;6.414;2023-02-22T13:32:01;18.70;99.90
3051;DHT22;1535;51.098;6.414;2023-02-22T13:34:49;18.60;99.90
3051;DHT22;1535;51.098;6.414;2023-02-22T13:37:39;18.10;99.90
3051;DHT22;1535;51.098;6.414;2023-02-22T13:43:33;18.30;99.90
3051;DHT22;1535;51.098;6.414;2023-02-22T13:52:02;18.60;99.90
3051;DHT22;1535;51.098;6.414;2023-02-22T13:54:36;18.80;99.90
3051;DHT22;1535;51.098;6.414;2023-02-22T13:57:18;19.10;99.90
3051;DHT22;1535;51.098;6.414;2023-02-22T13:59:45;18.90;99.90
3051;DHT22;1535;51.098;6.414;2023-02-22T14:02:32;19.00;99.90
3051;DHT22;1535;51.098;6.414;2023-02-22T14:08:41;19.20;99.90
3051;DHT22;1535;51.098;6.414;2023-02-22T14:14:19;18.50;99.90
3051;DHT22;1535;51.098;6.414;2023-02-22T14:17:14;18.60;99.90
3051;DHT22;1535;51.098;6.414;2023-02-22T14:19:59;18.40;99.90
3051;DHT22;1535;51.098;6.414;2023-02-22T14:22:27;18.00;99.90
3051;DHT22;1535;51.098;6.414;2023-02-22T14:24:56;18.10;99.90
3051;DHT22;1535;51.098;6.414;2023-02-22T14:27:23;18.10;99.90
3051;DHT22;1535;51.098;6.414;2023-02-22T14:29:55;18.00;99.90
3051;DHT22;1535;51.098;6.414;2023-02-22T14:32:30;17.80;99.90
3051;DHT22;1535;51.098;6.414;2023-02-22T14:34:59;17.20;99.90
3051;DHT22;1535;51.098;6.414;2023-02-22T14:37:31;17.10;99.90
3051;DHT22;1535;51.098;6.414;2023-02-22T14:40:03;16.90;99.90
3051;DHT22;1535;51.098;6.414;2023-02-22T14:42:39;16.40;99.90
3051;DHT22;1535;51.098;6.414;2023-02-22T14:45:23;16.40;99.90
3051;DHT22;1535;51.098;6.414;2023-02-22T14:47:54;16.20;99.90
3051;DHT22;1535;51.098;6.414;2023-02-22T14:50:35;16.00;99.90
3051;DHT22;1535;51.098;6.414;2023-02-22T14:53:06;15.90;99.90
3051;DHT22;1535;51.098;6.414;2023-02-22T14:55:38;15.80;99.90
3051;DHT22;1535;51.098;6.414;2023-02-22T14:58:08;15.70;99.90
3051;DHT22;1535;51.098;6.414;2023-02-22T15:00:39;15.60;99.90
3051;DHT22;1535;51.098;6.414;2023-02-22T15:03:17;15.30;99.90
3051;DHT22;1535;51.098;6.414;2023-02-22T15:05:46;15.10;99.90
3051;DHT22;1535;51.098;6.414;2023-02-22T15:08:15;14.90;99.90
3051;DHT22;1535;51.098;6.414;2023-02-22T15:10:44;14.90;99.90
3051;DHT22;1535;51.098;6.414;2023-02-22T15:13:15;14.80;99.90
3051;DHT22;1535;51.098;6.414;2023-02-22T15:15:43;14.80;99.90
3051;DHT22;1535;51.098;6.414;2023-02-22T15:18:25;14.90;99.90
3051;DHT22;1535;51.098;6.414;2023-02-22T15:20:57;15.10;99.90
3051;DHT22;1535;51.098;6.414;2023-02-22T15:23:27;15.10;99.90
3051;DHT22;1535;51.098;6.414;2023-02-22T15:25:57;15.20;99.90
3051;DHT22;1535;51.098;6.414;2023-02-22T15:28:27;15.10;99.90
3051;DHT22;1535;51.098;6.414;2023-02-22T15:31:13;15.00;99.90
3051;DHT22;1535;51.098;6.414;2023-02-22T15:33:41;14.80;99.90
3051;DHT22;1535;51.098;6.414;2023-02-22T15:36:14;14.80;99.90
3051;DHT22;1535;51.098;6.414;2023-02-22T15:38:47;14.70;99.90
3051;DHT22;1535;51.098;6.414;2023-02-22T15:41:22;14.60;99.90
3051;DHT22;1535;51.098;6.414;2023-02-22T15:44:00;14.30;99.90
3051;DHT22;1535;51.098;6.414;2023-02-22T15:46:29;14.20;99.90
3051;DHT22;1535;51.098;6.414;2023-02-22T15:49:16;14.10;99.90
3051;DHT22;1535;51.098;6.414;2023-02-22T15:51:48;14.10;99.90
3051;DHT22;1535;51.098;6.414;2023-02-22T15:54:18;14.00;99.90
3051;DHT22;1535;51.098;6.414;2023-02-22T15:56:50;14.00;99.90
3051;DHT22;1535;51.098;6.414;2023-02-22T15:59:20;13.90;99.90
3051;DHT22;1535;51.098;6.414;2023-02-22T16:01:54;13.70;99.90
3051;DHT22;1535;51.098;6.414;2023-02-22T16:04:25;13.60;99.90
3051;DHT22;1535;51.098;6.414;2023-02-22T16:07:02;13.60;99.90
3051;DHT22;1535;51.098;6.414;2023-02-22T16:09:32;13.60;99.90
3051;DHT22;1535;51.098;6.414;2023-02-22T16:12:08;13.50;99.90
3051;DHT22;1535;51.098;6.414;2023-02-22T16:14:40;13.40;99.90
3051;DHT22;1535;51.098;6.414;2023-02-22T16:17:11;13.40;99.90
3051;DHT22;1535;51.098;6.414;2023-02-22T16:19:40;13.40;99.90
3051;DHT22;1535;51.098;6.414;2023-02-22T16:22:23;13.40;99.90
3051;DHT22;1535;51.098;6.414;2023-02-22T16:24:51;13.20;99.90
3051;DHT22;1535;51.098;6.414;2023-02-22T16:27:21;13.20;99.90
3051;DHT22;1535;51.098;6.414;2023-02-22T16:30:03;13.10;99.90
3051;DHT22;1535;51.098;6.414;2023-02-22T16:32:32;13.10;99.90
3051;DHT22;1535;51.098;6.414;2023-02-22T16:34:59;13.00;99.90
3051;DHT22;1535;51.098;6.414;2023-02-22T16:37:27;13.00;99.90
3051;DHT22;1535;51.098;6.414;2023-02-22T16:39:54;12.90;99.90
3051;DHT22;1535;51.098;6.414;2023-02-22T16:42:21;12.80;99.90
3051;DHT22;1535;51.098;6.414;2023-02-22T16:44:51;12.80;99.90
3051;DHT22;1535;51.098;6.414;2023-02-22T16:47:19;12.80;99.90
3051;DHT22;1535;51.098;6.414;2023-02-22T16:49:48;12.70;99.90
3051;DHT22;1535;51.098;6.414;2023-02-22T16:52:17;12.60;99.90
3051;DHT22;1535;51.098;6.414;2023-02-22T16:54:46;12.50;99.90
3051;DHT22;1535;51.098;6.414;2023-02-22T16:57:17;12.50;99.90